Time;durP1;ratioP1;P1;durP2;ratioP2;P2;SDS_P1;SDS_P2;PMS_P1;PMS_P2;Temp;Humidity;BMP_temperature;BMP_pressure;BME280_temperature;BME280_humidity;BME280_pressure;Samples;Min_cycle;Max_cycle;Signal;HPM_P1;HPM_P2
2022/03/29 00:02:51;;;;;;;5.63;2.80;;;12.20;63.10;;;;;;20897460;28;20063;-80
2022/03/29 00:12:53;;;;;;;4.97;2.42;;;12.20;63.10;;;;;;20863054;28;20061;-80
2022/03/29 00:22:54;;;;;;;5.05;2.83;;;12.20;63.10;;;;;;20895716;28;20104;-78
2022/03/29 00:32:55;;;;;;;4.05;2.60;;;12.20;63.10;;;;;;20894641;28;20067;-78
2022/03/29 00:42:57;;;;;;;5.15;2.75;;;12.20;63.10;;;;;;20892697;28;20041;-78
2022/03/29 00:52:57;;;;;;;5.65;3.03;;;12.10;63.00;;;;;;20910640;28;20155;-82
2022/03/29 01:03:02;;;;;;;5.75;3.40;;;12.20;63.10;;;;;;20864908;28;20439;-81
2022/03/29 01:13:02;;;;;;;5.90;3.38;;;12.20;63.10;;;;;;20878926;28;20068;-78
2022/03/29 01:23:03;;;;;;;4.57;3.20;;;12.10;63.00;;;;;;20891297;28;20065;-78
2022/03/29 01:33:06;;;;;;;7.38;3.28;;;12.10;63.10;;;;;;20891211;28;20037;-78
2022/03/29 01:43:07;;;;;;;6.90;3.33;;;12.10;63.10;;;;;;20873233;28;20029;-78
2022/03/29 01:53:08;;;;;;;4.50;2.80;;;12.10;63.10;;;;;;20890395;28;20040;-78
2022/03/29 02:03:09;;;;;;;6.10;2.83;;;12.10;63.10;;;;;;20872968;28;20457;-79
2022/03/29 02:23:27;;;;;;;;;;;12.10;63.20;;;;;;20756333;22;20054;-80
2022/03/29 02:33:27;;;;;;;5.32;3.38;;;12.00;63.10;;;;;;20756140;28;20358;-81
2022/03/29 02:43:28;;;;;;;5.55;3.35;;;12.10;63.10;;;;;;20754703;28;20077;-80
2022/03/29 02:53:28;;;;;;;6.32;3.20;;;12.00;63.10;;;;;;20738290;28;20037;-81
2022/03/29 03:03:31;;;;;;;9.48;3.67;;;12.00;63.10;;;;;;20752231;28;20033;-82
2022/03/29 03:13:33;;;;;;;7.15;3.92;;;12.10;63.10;;;;;;20699941;28;20350;-81
2022/03/29 03:23:33;;;;;;;5.72;3.72;;;12.10;63.20;;;;;;20621669;28;20500;-81
2022/03/29 03:33:34;;;;;;;5.78;3.45;;;12.00;63.10;;;;;;20637621;28;20117;-83
2022/03/29 03:43:34;;;;;;;6.65;3.47;;;12.00;63.10;;;;;;20668404;28;20041;-81
2022/03/29 03:53:35;;;;;;;4.80;3.28;;;12.00;63.10;;;;;;20653005;28;20069;-79
2022/03/29 04:03:35;;;;;;;6.22;3.80;;;12.00;63.10;;;;;;20667566;28;20034;-78
2022/03/29 04:13:36;;;;;;;6.38;4.15;;;12.00;63.10;;;;;;20633904;28;20381;-81
2022/03/29 04:23:37;;;;;;;6.75;4.00;;;12.00;63.10;;;;;;20651377;28;20073;-81
2022/03/29 04:33:37;;;;;;;8.13;3.70;;;12.00;63.10;;;;;;20648187;28;20054;-82
2022/03/29 04:43:38;;;;;;;6.57;3.60;;;12.00;63.10;;;;;;20662397;28;20121;-77
2022/03/29 04:53:39;;;;;;;7.95;4.10;;;12.00;63.10;;;;;;20645152;28;20827;-78
2022/03/29 05:03:39;;;;;;;5.93;3.47;;;12.00;63.10;;;;;;20658761;28;20129;-73
2022/03/29 05:13:40;;;;;;;11.63;4.07;;;11.90;62.90;;;;;;20658187;28;20097;-71
2022/03/29 05:23:40;;;;;;;8.13;4.03;;;12.00;63.00;;;;;;20724331;28;20137;-74
2022/03/29 05:33:41;;;;;;;6.53;3.50;;;11.90;62.90;;;;;;20738572;28;20030;-72
2022/03/29 05:43:42;;;;;;;7.70;4.78;;;11.90;63.60;;;;;;20721784;28;20034;-73
2022/03/29 05:53:43;;;;;;;8.15;4.05;;;11.90;62.90;;;;;;20742210;28;20107;-74
2022/03/29 06:03:43;;;;;;;10.10;5.10;;;11.90;62.80;;;;;;20733684;28;20046;-76
2022/03/29 06:13:44;;;;;;;7.43;4.05;;;11.90;62.80;;;;;;20750052;28;20288;-73
2022/03/29 06:23:44;;;;;;;8.40;3.88;;;11.90;62.80;;;;;;20749493;28;20084;-75
2022/03/29 06:33:45;;;;;;;8.48;4.60;;;11.90;62.80;;;;;;20728606;28;20125;-76
2022/03/29 06:43:46;;;;;;;11.60;4.03;;;11.90;62.80;;;;;;20649830;28;20452;-74
2022/03/29 06:53:47;;;;;;;10.88;4.38;;;11.90;62.80;;;;;;20653837;28;20412;-72
2022/03/29 07:03:47;;;;;;;6.93;3.60;;;11.90;62.80;;;;;;20653508;28;20038;-73
2022/03/29 07:13:48;;;;;;;9.90;4.10;;;11.90;62.70;;;;;;20648212;28;20057;-75
2022/03/29 07:23:48;;;;;;;14.68;5.07;;;11.90;62.80;;;;;;20667304;28;20109;-73
2022/03/29 07:33:49;;;;;;;9.00;4.55;;;11.90;62.70;;;;;;20669866;28;20049;-73
2022/03/29 07:43:50;;;;;;;9.60;5.25;;;11.80;62.60;;;;;;20667007;28;20070;-72
2022/03/29 07:53:51;;;;;;;8.02;5.13;;;11.90;62.60;;;;;;20665212;28;20054;-76
2022/03/29 08:03:51;;;;;;;18.27;9.25;;;11.80;62.60;;;;;;20649250;28;20399;-75
2022/03/29 08:13:53;;;;;;;22.63;9.65;;;11.70;62.10;;;;;;20664536;28;20041;-74
2022/03/29 08:23:54;;;;;;;18.80;9.57;;;11.60;61.70;;;;;;20650539;28;20042;-77
2022/03/29 08:33:55;;;;;;;16.33;9.82;;;11.60;61.40;;;;;;20645892;28;20080;-75
2022/03/29 08:43:55;;;;;;;26.00;9.48;;;11.50;61.20;;;;;;20660584;28;20045;-81
2022/03/29 08:53:56;;;;;;;20.13;9.70;;;11.60;61.10;;;;;;20659158;28;20058;-72
2022/03/29 09:04:10;;;;;;;18.40;8.88;;;11.60;61.10;;;;;;20660358;28;20065;-76
2022/03/29 09:14:11;;;;;;;23.67;8.90;;;11.50;61.20;;;;;;20642125;28;20042;-75
2022/03/29 09:24:17;;;;;;;20.48;10.38;;;11.60;61.10;;;;;;20659759;28;20077;-76
2022/03/29 09:34:19;;;;;;;19.15;10.20;;;11.60;61.10;;;;;;20642281;28;20133;-76
2022/03/29 09:44:21;;;;;;;24.77;10.90;;;11.60;60.90;;;;;;20657801;28;20038;-76
2022/03/29 09:54:22;;;;;;;19.83;8.95;;;11.60;60.80;;;;;;20673836;28;20200;-74
2022/03/29 10:04:25;;;;;;;20.05;8.50;;;11.60;60.70;;;;;;20673183;28;20098;-75
2022/03/29 10:14:27;;;;;;;19.50;9.48;;;11.70;60.70;;;;;;20638494;28;20038;-74
2022/03/29 10:24:31;;;;;;;17.08;9.00;;;11.70;60.80;;;;;;20673075;28;20041;-81
2022/03/29 10:34:37;;;;;;;15.25;7.18;;;11.70;60.80;;;;;;20641510;28;20045;-78
2022/03/29 10:45:07;;;;;;;18.87;8.57;;;11.80;60.90;;;;;;20657603;28;20034;-81
2022/03/29 10:55:25;;;;;;;17.58;9.20;;;11.80;61.00;;;;;;20665371;28;20046;-81
2022/03/29 11:05:25;;;;;;;19.90;9.88;;;11.80;61.00;;;;;;20640790;28;20073;-80
2022/03/29 11:15:35;;;;;;;14.90;7.97;;;11.80;61.00;;;;;;20656046;28;20034;-82
2022/03/29 11:25:41;;;;;;;15.98;8.00;;;11.80;60.90;;;;;;20673160;28;20041;-81
2022/03/29 11:35:41;;;;;;;16.60;8.57;;;11.80;60.80;;;;;;20667808;28;20052;-75
2022/03/29 11:45:44;;;;;;;16.07;8.03;;;11.80;60.80;;;;;;20648108;28;20034;-74
2022/03/29 11:56:08;;;;;;;14.00;7.22;;;11.80;60.80;;;;;;20678076;28;20300;-77
2022/03/29 12:06:08;;;;;;;8.20;5.18;;;11.90;61.00;;;;;;20630219;28;20041;-77
2022/03/29 12:16:23;;;;;;;9.57;4.82;;;11.90;61.00;;;;;;20663648;28;20034;-78
2022/03/29 12:26:23;;;;;;;7.63;4.10;;;11.90;61.30;;;;;;20631483;28;20065;-78
2022/03/29 12:36:25;;;;;;;8.05;3.20;;;11.90;61.40;;;;;;20642814;28;20046;-75
2022/03/29 12:46:26;;;;;;;5.25;3.38;;;11.90;61.30;;;;;;20643015;28;20031;-72
2022/03/29 12:56:35;;;;;;;6.80;3.42;;;11.90;61.30;;;;;;20685151;28;20125;-72
2022/03/29 13:06:43;;;;;;;10.45;5.18;;;11.90;61.10;;;;;;20734038;28;20062;-71
2022/03/29 13:16:50;;;;;;;13.75;5.00;;;11.90;60.80;;;;;;20560593;28;20125;-71
2022/03/29 13:26:52;;;;;;;16.88;5.43;;;12.00;60.10;;;;;;20667521;28;20035;-73
2022/03/29 13:36:53;;;;;;;14.27;6.45;;;12.10;60.10;;;;;;20654164;28;20511;-73
2022/03/29 13:46:53;;;;;;;20.17;6.72;;;12.20;60.00;;;;;;20651594;28;20022;-73
2022/03/29 13:56:54;;;;;;;11.60;5.07;;;12.20;59.80;;;;;;20668193;28;20042;-75
2022/03/29 14:06:54;;;;;;;19.17;4.97;;;12.20;59.80;;;;;;20657416;28;20077;-77
2022/03/29 14:16:55;;;;;;;12.63;4.75;;;12.20;59.30;;;;;;20675263;28;20129;-76
2022/03/29 14:26:57;;;;;;;13.45;5.28;;;12.30;59.00;;;;;;20626086;28;20038;-83
2022/03/29 14:37:01;;;;;;;14.38;4.63;;;12.20;58.80;;;;;;20639799;28;20045;-83
2022/03/29 14:47:06;;;;;;;8.00;3.67;;;12.30;58.60;;;;;;20717091;28;20095;-81
2022/03/29 14:57:11;;;;;;;8.30;4.40;;;12.30;58.50;;;;;;20685447;28;20042;-80
2022/03/29 15:07:14;;;;;;;11.48;4.20;;;12.30;58.60;;;;;;20655984;28;20034;-80
2022/03/29 15:17:15;;;;;;;8.55;3.25;;;12.40;58.40;;;;;;20651810;28;20043;-78
2022/03/29 15:27:16;;;;;;;11.57;3.97;;;12.40;58.20;;;;;;20645590;28;20121;-73
2022/03/29 15:37:17;;;;;;;6.63;3.13;;;12.40;58.20;;;;;;20641624;28;20359;-73
2022/03/29 15:47:18;;;;;;;13.88;4.20;;;12.40;58.20;;;;;;20660108;28;20325;-72
2022/03/29 15:57:21;;;;;;;5.93;3.33;;;12.50;58.20;;;;;;20642821;28;20069;-72
2022/03/29 16:07:22;;;;;;;7.07;3.28;;;12.50;58.30;;;;;;20641643;28;20030;-71
2022/03/29 16:17:25;;;;;;;11.88;3.67;;;12.50;58.30;;;;;;20655426;28;20137;-72
2022/03/29 16:27:27;;;;;;;9.93;4.20;;;12.50;58.30;;;;;;20630147;28;20722;-74
2022/03/29 16:37:27;;;;;;;9.88;4.63;;;12.40;58.30;;;;;;20655486;28;20113;-74
2022/03/29 16:47:28;;;;;;;6.80;3.50;;;12.40;58.30;;;;;;20641165;28;20037;-74
2022/03/29 16:57:28;;;;;;;6.43;3.37;;;12.40;58.40;;;;;;20635033;28;20305;-74
2022/03/29 17:07:29;;;;;;;7.50;2.85;;;12.40;58.60;;;;;;20639561;28;20315;-75
2022/03/29 17:17:34;;;;;;;10.02;3.10;;;12.40;58.70;;;;;;20667906;28;20038;-77
2022/03/29 17:27:35;;;;;;;8.43;3.35;;;12.30;58.80;;;;;;20658150;28;20457;-79
2022/03/29 17:37:35;;;;;;;8.10;2.35;;;12.30;58.90;;;;;;20660488;28;20129;-77
2022/03/29 17:47:36;;;;;;;10.60;4.07;;;12.20;59.00;;;;;;20617081;28;20026;-74
2022/03/29 17:57:37;;;;;;;10.57;3.78;;;12.30;59.10;;;;;;20708771;28;20049;-74
2022/03/29 18:07:37;;;;;;;7.72;3.22;;;12.20;59.10;;;;;;20755074;28;20030;-76
2022/03/29 18:17:38;;;;;;;5.15;2.58;;;12.20;59.20;;;;;;20755157;28;20072;-76
2022/03/29 18:27:39;;;;;;;4.60;2.53;;;12.20;59.20;;;;;;20754980;28;20318;-74
2022/03/29 18:37:39;;;;;;;4.67;2.40;;;12.10;59.30;;;;;;20734260;28;20213;-75
2022/03/29 18:47:40;;;;;;;3.95;2.40;;;12.10;59.40;;;;;;20590812;28;20368;-74
2022/03/29 18:57:40;;;;;;;4.50;2.20;;;12.10;59.40;;;;;;20574820;28;20126;-74
2022/03/29 19:07:43;;;;;;;7.15;2.60;;;12.10;59.60;;;;;;20590864;28;20049;-75
2022/03/29 19:17:44;;;;;;;7.10;3.17;;;12.00;59.50;;;;;;20574049;28;20045;-76
2022/03/29 19:27:45;;;;;;;5.88;2.50;;;12.00;59.60;;;;;;20574426;28;20408;-74
2022/03/29 19:37:51;;;;;;;6.03;1.90;;;12.00;59.60;;;;;;20572611;28;20405;-74
2022/03/29 19:47:52;;;;;;;6.57;2.13;;;12.00;59.70;;;;;;20635449;28;20034;-74
2022/03/29 19:57:59;;;;;;;5.32;2.03;;;12.00;59.70;;;;;;20666508;28;20503;-76
2022/03/29 20:07:59;;;;;;;5.38;2.13;;;12.00;59.80;;;;;;20668223;28;20391;-83
2022/03/29 20:18:00;;;;;;;5.30;1.88;;;12.00;59.90;;;;;;20633535;28;20049;-75
2022/03/29 20:28:01;;;;;;;3.33;2.28;;;11.90;59.80;;;;;;20649030;28;20095;-75
2022/03/29 20:38:01;;;;;;;8.15;3.05;;;12.00;59.90;;;;;;20665427;28;20046;-74
2022/03/29 20:48:02;;;;;;;5.60;2.67;;;11.90;59.90;;;;;;20648637;28;20130;-76
2022/03/29 20:58:02;;;;;;;3.87;1.90;;;11.90;59.90;;;;;;20664107;28;20350;-75
2022/03/29 21:08:06;;;;;;;3.85;1.67;;;11.90;59.90;;;;;;20663096;28;20316;-75
2022/03/29 21:18:06;;;;;;;3.53;1.83;;;11.90;59.90;;;;;;20663480;28;20046;-74
2022/03/29 21:28:07;;;;;;;4.55;1.63;;;11.90;60.00;;;;;;20629311;28;20610;-74
2022/03/29 21:38:08;;;;;;;5.70;1.80;;;11.90;60.00;;;;;;20661467;28;20042;-74
2022/03/29 21:48:10;;;;;;;3.45;1.85;;;11.90;59.90;;;;;;20643896;28;20066;-84
2022/03/29 21:58:11;;;;;;;4.32;1.95;;;11.90;59.90;;;;;;20643053;28;20705;-74
2022/03/29 22:08:30;;;;;;;3.47;1.80;;;11.80;59.80;;;;;;20673165;28;20239;-73
2022/03/29 22:18:30;;;;;;;2.42;1.45;;;11.80;59.70;;;;;;20624738;28;20053;-74
2022/03/29 22:28:31;;;;;;;5.90;1.90;;;11.80;59.70;;;;;;20641355;28;20482;-73
2022/03/29 22:38:32;;;;;;;2.63;1.98;;;11.80;59.60;;;;;;20623370;28;20297;-73
2022/03/29 22:48:33;;;;;;;6.07;1.70;;;11.80;59.60;;;;;;20624271;28;20034;-73
2022/03/29 22:58:33;;;;;;;3.70;1.63;;;11.80;59.60;;;;;;20655742;28;20038;-74
2022/03/29 23:08:34;;;;;;;3.25;1.38;;;11.80;59.60;;;;;;20638096;28;20034;-74
2022/03/29 23:18:34;;;;;;;3.63;1.88;;;11.70;59.50;;;;;;20637054;28;20069;-73
2022/03/29 23:28:35;;;;;;;3.17;1.30;;;11.70;59.50;;;;;;20652448;28;20088;-74
2022/03/29 23:38:35;;;;;;;2.33;1.40;;;11.70;59.40;;;;;;20634322;28;20366;-73
2022/03/29 23:48:36;;;;;;;3.13;1.05;;;11.70;59.40;;;;;;20635280;28;20493;-73
2022/03/29 23:58:37;;;;;;;6.90;1.38;;;11.70;59.40;;;;;;20649512;28;20035;-73
